createdAt,value
2018-11-25T00:00:13.631Z,3.60
2018-11-25T00:02:39.917Z,5.53
2018-11-25T00:05:06.176Z,5.37
2018-11-25T00:07:34.822Z,5.10
2018-11-25T00:09:59.522Z,4.80
2018-11-25T00:12:25.780Z,3.60
2018-11-25T00:14:52.879Z,3.93
2018-11-25T00:17:19.095Z,4.13
2018-11-25T00:19:45.357Z,5.13
2018-11-25T00:22:11.641Z,5.30
2018-11-25T00:24:37.873Z,5.10
2018-11-25T00:27:04.142Z,5.97
2018-11-25T00:29:30.366Z,6.23
2018-11-25T00:31:57.391Z,6.33
2018-11-25T00:34:23.636Z,3.30
2018-11-25T00:36:50.697Z,4.13
2018-11-25T00:39:16.947Z,5.10
2018-11-25T00:41:43.938Z,7.03
2018-11-25T00:44:10.187Z,4.40
2018-11-25T00:46:36.411Z,4.07
2018-11-25T00:49:02.831Z,5.63
2018-11-25T00:51:29.044Z,4.07
2018-11-25T00:53:55.284Z,3.30
2018-11-25T00:56:21.529Z,4.03
2018-11-25T00:58:47.746Z,3.43
2018-11-25T01:01:13.995Z,4.87
2018-11-25T01:03:40.264Z,4.13
2018-11-25T01:06:06.515Z,3.13
2018-11-25T01:08:32.822Z,5.43
2018-11-25T01:10:59.074Z,2.83
2018-11-25T01:13:25.336Z,3.57
2018-11-25T01:15:51.806Z,3.97
2018-11-25T01:18:18.055Z,3.27
2018-11-25T01:20:44.327Z,2.97
2018-11-25T01:23:10.609Z,6.77
2018-11-25T01:25:36.843Z,3.57
2018-11-25T01:28:03.118Z,4.30
2018-11-25T01:30:29.383Z,4.53
2018-11-25T01:32:55.660Z,3.10
2018-11-25T01:35:21.920Z,4.97
2018-11-25T01:37:48.895Z,4.77
2018-11-25T01:40:15.210Z,4.40
2018-11-25T01:42:41.507Z,4.53
2018-11-25T01:45:07.766Z,4.53
2018-11-25T01:47:34.057Z,3.97
2018-11-25T01:50:00.335Z,3.10
2018-11-25T01:52:26.603Z,5.97
2018-11-25T01:54:52.889Z,4.23
2018-11-25T01:57:19.144Z,4.43
2018-11-25T01:59:45.440Z,4.67
2018-11-25T02:02:11.679Z,4.40
2018-11-25T02:04:37.920Z,5.07
2018-11-25T02:07:04.242Z,5.53
2018-11-25T02:09:30.453Z,4.47
2018-11-25T02:11:56.725Z,3.83
2018-11-25T02:14:22.954Z,4.60
2018-11-25T02:16:49.195Z,3.40
2018-11-25T02:19:15.432Z,4.53
2018-11-25T02:21:42.704Z,3.80
2018-11-25T02:24:08.971Z,3.67
2018-11-25T02:26:35.214Z,3.63
2018-11-25T02:29:01.479Z,4.93
2018-11-25T02:31:28.451Z,3.30
2018-11-25T02:33:54.691Z,4.13
2018-11-25T02:36:21.867Z,4.10
2018-11-25T02:38:48.095Z,4.20
2018-11-25T02:41:14.363Z,3.83
2018-11-25T02:43:41.351Z,4.27
2018-11-25T02:46:08.343Z,3.57
2018-11-25T02:48:35.335Z,3.53
2018-11-25T02:51:01.579Z,3.80
2018-11-25T02:53:27.844Z,4.60
2018-11-25T02:55:54.822Z,5.37
2018-11-25T02:58:21.254Z,6.10
2018-11-25T03:00:47.595Z,6.97
2018-11-25T03:03:13.815Z,5.10
2018-11-25T03:05:40.111Z,6.03
2018-11-25T03:08:07.372Z,5.00
2018-11-25T03:10:33.611Z,5.60
2018-11-25T03:12:59.898Z,6.53
2018-11-25T03:15:26.277Z,3.93
2018-11-25T03:17:52.515Z,4.00
2018-11-25T03:20:18.874Z,5.53
2018-11-25T03:22:45.157Z,7.10
2018-11-25T03:25:11.408Z,5.70
2018-11-25T03:27:37.642Z,7.90
2018-11-25T03:30:04.219Z,7.10
2018-11-25T03:32:30.583Z,8.00
2018-11-25T03:34:56.826Z,8.73
2018-11-25T03:37:23.043Z,6.50
2018-11-25T03:39:49.293Z,6.23
2018-11-25T03:42:15.806Z,7.40
2018-11-25T03:44:42.267Z,6.50
2018-11-25T03:47:08.495Z,7.17
2018-11-25T03:49:35.000Z,6.07
2018-11-25T03:52:01.224Z,7.47
2018-11-25T03:54:27.456Z,5.70
2018-11-25T03:56:53.714Z,5.93
2018-11-25T03:59:19.982Z,6.77
2018-11-25T04:01:46.359Z,6.80
2018-11-25T04:04:12.660Z,6.53
2018-11-25T04:06:39.131Z,7.43
2018-11-25T04:09:05.450Z,7.53
2018-11-25T04:11:31.781Z,7.20
2018-11-25T04:13:58.056Z,6.63
2018-11-25T04:16:25.078Z,7.03
2018-11-25T04:18:52.136Z,5.87
2018-11-25T04:21:19.194Z,6.87
2018-11-25T04:23:45.540Z,5.37
2018-11-25T04:26:11.814Z,6.37
2018-11-25T04:28:38.262Z,5.70
2018-11-25T04:31:04.535Z,5.90
2018-11-25T04:33:30.770Z,5.23
2018-11-25T04:35:57.019Z,5.53
2018-11-25T04:38:23.261Z,7.77
2018-11-25T04:40:49.566Z,5.80
2018-11-25T04:43:15.796Z,7.03
2018-11-25T04:45:42.012Z,6.37
2018-11-25T04:48:08.229Z,5.77
2018-11-25T04:50:34.755Z,5.57
2018-11-25T04:53:01.740Z,5.33
2018-11-25T04:55:27.959Z,6.10
2018-11-25T04:57:54.194Z,5.67
2018-11-25T05:00:20.486Z,4.40
2018-11-25T05:02:47.474Z,7.17
2018-11-25T05:05:13.729Z,5.90
2018-11-25T05:07:40.070Z,6.37
2018-11-25T05:10:07.096Z,3.97
2018-11-25T05:12:33.438Z,6.23
2018-11-25T05:15:00.071Z,5.87
2018-11-25T05:17:26.627Z,7.80
2018-11-25T05:19:53.599Z,7.07
2018-11-25T05:22:19.898Z,5.63
2018-11-25T05:24:46.379Z,4.70
2018-11-25T05:27:12.697Z,5.73
2018-11-25T05:29:38.988Z,4.60
2018-11-25T05:32:06.549Z,4.40
2018-11-25T05:34:32.799Z,4.13
2018-11-25T05:36:59.055Z,4.87
2018-11-25T05:39:25.308Z,5.30
2018-11-25T05:41:51.539Z,4.33
2018-11-25T05:44:17.835Z,5.17
2018-11-25T05:46:44.087Z,4.27
2018-11-25T05:49:10.369Z,6.43
2018-11-25T05:51:36.648Z,4.67
2018-11-25T05:54:02.960Z,4.37
2018-11-25T05:56:29.188Z,4.80
2018-11-25T05:58:55.569Z,4.80
2018-11-25T06:01:22.510Z,5.10
2018-11-25T06:03:48.813Z,4.20
2018-11-25T06:06:15.085Z,6.63
2018-11-25T06:08:41.351Z,4.50
2018-11-25T06:11:07.595Z,6.23
2018-11-25T06:13:34.563Z,5.90
2018-11-25T06:16:01.020Z,5.10
2018-11-25T06:18:27.335Z,4.67
2018-11-25T06:20:53.904Z,6.23
2018-11-25T06:23:20.156Z,5.30
2018-11-25T06:25:46.542Z,4.93
2018-11-25T06:28:12.774Z,5.33
2018-11-25T06:30:39.033Z,7.33
2018-11-25T06:33:05.353Z,6.67
2018-11-25T06:35:31.735Z,5.90
2018-11-25T06:37:58.379Z,3.23
2018-11-25T06:40:24.650Z,3.73
2018-11-25T06:42:51.719Z,4.50
2018-11-25T06:45:18.012Z,2.73
2018-11-25T06:47:44.329Z,2.50
2018-11-25T06:50:12.426Z,3.00
2018-11-25T06:52:37.878Z,2.27
2018-11-25T06:55:04.249Z,2.40
2018-11-25T06:57:30.696Z,2.80
2018-11-25T06:59:57.238Z,3.27
2018-11-25T07:02:24.217Z,3.90
2018-11-25T07:04:51.191Z,5.27
2018-11-25T07:07:17.447Z,4.70
2018-11-25T07:09:44.021Z,5.77
2018-11-25T07:12:10.270Z,5.30
2018-11-25T07:14:36.503Z,6.40
2018-11-25T07:17:02.765Z,8.70
2018-11-25T07:19:28.985Z,10.20
2018-11-25T07:21:55.264Z,14.27
2018-11-25T07:24:22.232Z,12.53
2018-11-25T07:26:48.493Z,17.27
2018-11-25T07:29:14.734Z,16.13
2018-11-25T07:31:41.034Z,22.00
2018-11-25T07:34:07.363Z,22.83
2018-11-25T07:36:33.654Z,19.57
2018-11-25T07:39:00.619Z,20.07
2018-11-25T07:41:27.127Z,20.60
2018-11-25T07:43:53.355Z,22.00
2018-11-25T07:46:19.615Z,18.33
2018-11-25T07:48:45.860Z,22.67
2018-11-25T07:51:12.093Z,21.20
2018-11-25T07:53:38.320Z,20.40
2018-11-25T07:56:04.588Z,19.33
2018-11-25T07:58:31.852Z,20.30
2018-11-25T08:00:58.809Z,17.63
2018-11-25T08:03:25.828Z,18.40
2018-11-25T08:05:52.825Z,19.97
2018-11-25T08:08:19.104Z,17.10
2018-11-25T08:10:45.356Z,17.47
2018-11-25T08:13:11.895Z,17.67
2018-11-25T08:15:38.159Z,20.67
2018-11-25T08:18:04.408Z,19.97
2018-11-25T08:20:30.777Z,20.40
2018-11-25T08:22:57.043Z,19.23
2018-11-25T08:25:24.059Z,20.73
2018-11-25T08:27:51.126Z,18.73
2018-11-25T08:30:17.403Z,17.80
2018-11-25T08:32:43.652Z,19.57
2018-11-25T08:35:09.957Z,21.00
2018-11-25T08:37:36.229Z,20.60
2018-11-25T08:40:02.517Z,19.53
2018-11-25T08:42:29.501Z,17.93
2018-11-25T08:44:55.739Z,18.33
2018-11-25T08:47:21.987Z,18.57
2018-11-25T08:49:48.232Z,16.27
2018-11-25T08:52:14.778Z,18.10
2018-11-25T08:54:41.003Z,17.10
2018-11-25T08:57:07.231Z,16.63
2018-11-25T08:59:33.528Z,16.93
2018-11-25T09:01:59.895Z,17.60
2018-11-25T09:04:26.322Z,18.20
2018-11-25T09:06:52.658Z,16.93
2018-11-25T09:09:18.974Z,17.43
2018-11-25T09:11:45.215Z,20.53
2018-11-25T09:14:11.569Z,17.53
2018-11-25T09:16:37.837Z,17.87
2018-11-25T09:19:04.939Z,17.53
2018-11-25T09:21:31.598Z,17.30
2018-11-25T09:23:57.860Z,18.07
2018-11-25T09:26:24.908Z,20.97
2018-11-25T09:28:52.246Z,17.77
2018-11-25T09:31:17.470Z,17.73
2018-11-25T09:33:43.709Z,16.63
2018-11-25T09:36:09.969Z,21.00
2018-11-25T09:38:36.322Z,19.47
2018-11-25T09:41:04.028Z,18.27
2018-11-25T09:43:32.094Z,17.20
2018-11-25T09:45:58.527Z,17.10
2018-11-25T09:48:25.616Z,18.23
2018-11-25T09:50:52.732Z,19.27
2018-11-25T09:53:19.145Z,16.80
2018-11-25T09:55:45.673Z,17.23
2018-11-25T09:58:13.157Z,16.67
2018-11-25T10:00:40.267Z,17.30
2018-11-25T10:03:07.350Z,16.33
2018-11-25T10:05:33.704Z,17.13
2018-11-25T10:08:00.940Z,16.83
2018-11-25T10:10:28.008Z,15.53
2018-11-25T10:12:54.280Z,16.97
2018-11-25T10:15:20.648Z,14.80
2018-11-25T10:17:47.495Z,17.90
2018-11-25T10:20:14.598Z,16.37
2018-11-25T10:22:40.915Z,15.53
2018-11-25T10:25:07.566Z,16.60
2018-11-25T10:27:33.880Z,15.43
2018-11-25T10:30:01.141Z,15.43
2018-11-25T10:32:27.978Z,15.67
2018-11-25T10:34:54.621Z,14.73
2018-11-25T10:37:21.005Z,14.13
2018-11-25T10:39:49.124Z,17.23
2018-11-25T10:42:16.090Z,14.90
2018-11-25T10:44:42.762Z,14.70
2018-11-25T10:47:09.112Z,15.00
2018-11-25T10:49:35.473Z,15.50
2018-11-25T10:52:02.201Z,15.10
2018-11-25T10:54:29.440Z,13.60
2018-11-25T10:56:56.594Z,13.43
2018-11-25T10:59:22.893Z,14.13
2018-11-25T11:01:49.264Z,12.07
2018-11-25T11:04:15.747Z,14.87
2018-11-25T11:06:42.240Z,14.53
2018-11-25T11:09:09.963Z,13.00
2018-11-25T11:11:37.745Z,15.50
2018-11-25T11:14:04.079Z,13.77
2018-11-25T11:16:30.410Z,14.60
2018-11-25T11:18:56.807Z,14.93
2018-11-25T11:21:23.293Z,12.67
2018-11-25T11:23:49.931Z,13.63
2018-11-25T11:26:16.617Z,12.57
2018-11-25T11:28:42.915Z,13.50
2018-11-25T11:31:13.349Z,13.87
2018-11-25T11:33:36.108Z,12.57
2018-11-25T11:36:02.947Z,12.23
2018-11-25T11:38:29.577Z,12.53
2018-11-25T11:40:56.871Z,12.93
2018-11-25T11:43:24.208Z,12.40
2018-11-25T11:45:51.485Z,12.00
2018-11-25T11:48:17.824Z,11.70
2018-11-25T11:50:44.301Z,11.63
2018-11-25T11:53:11.962Z,14.07
2018-11-25T11:55:38.384Z,10.93
2018-11-25T11:58:04.715Z,10.57
2018-11-25T12:00:31.959Z,10.37
2018-11-25T12:02:59.373Z,11.23
2018-11-25T12:05:25.918Z,11.10
2018-11-25T12:07:52.319Z,11.97
2018-11-25T12:10:18.742Z,11.70
2018-11-25T12:12:45.191Z,11.93
2018-11-25T12:15:11.640Z,11.23
2018-11-25T12:17:37.975Z,12.23
2018-11-25T12:20:04.580Z,10.20
2018-11-25T12:22:30.939Z,12.47
2018-11-25T12:24:58.028Z,11.43
2018-11-25T12:27:24.423Z,11.23
2018-11-25T12:29:51.541Z,12.23
2018-11-25T12:32:17.900Z,11.13
2018-11-25T12:34:44.380Z,10.17
2018-11-25T12:37:10.796Z,9.87
2018-11-25T12:39:37.479Z,10.37
2018-11-25T12:44:37.392Z,10.13
2018-11-25T12:47:03.731Z,9.97
2018-11-25T12:49:30.071Z,9.33
2018-11-25T12:51:56.638Z,9.50
2018-11-25T12:54:23.724Z,9.70
2018-11-25T12:56:51.863Z,10.03
2018-11-25T12:59:16.584Z,10.03
2018-11-25T13:01:42.903Z,10.60
2018-11-25T13:04:09.943Z,10.33
2018-11-25T13:06:36.703Z,9.73
2018-11-25T13:09:03.084Z,9.43
2018-11-25T13:11:29.431Z,10.43
2018-11-25T13:13:55.891Z,10.10
2018-11-25T13:16:22.620Z,10.47
2018-11-25T13:18:48.991Z,10.23
2018-11-25T13:21:15.462Z,8.77
2018-11-25T13:23:43.271Z,10.57
2018-11-25T13:26:09.276Z,9.47
2018-11-25T13:28:35.639Z,8.33
2018-11-25T13:31:02.364Z,7.83
2018-11-25T13:33:28.676Z,10.00
2018-11-25T13:35:55.042Z,9.30
2018-11-25T13:38:21.545Z,8.97
2018-11-25T13:40:49.485Z,9.30
2018-11-25T13:43:14.684Z,8.17
2018-11-25T13:45:41.092Z,8.20
2018-11-25T13:48:07.771Z,8.17
2018-11-25T13:50:34.412Z,8.87
2018-11-25T13:53:00.852Z,8.30
2018-11-25T13:55:27.299Z,9.17
2018-11-25T13:57:53.712Z,8.20
2018-11-25T14:00:21.096Z,8.37
2018-11-25T14:02:47.982Z,8.07
2018-11-25T14:05:14.412Z,8.87
2018-11-25T14:07:40.956Z,7.47
2018-11-25T14:10:07.695Z,10.10
2018-11-25T14:12:34.091Z,8.23
2018-11-25T14:15:00.537Z,6.87
2018-11-25T14:17:27.003Z,6.33
2018-11-25T14:19:53.555Z,8.00
2018-11-25T14:22:20.932Z,8.03
2018-11-25T14:24:48.388Z,6.63
2018-11-25T14:27:16.060Z,8.70
2018-11-25T14:29:42.572Z,6.47
2018-11-25T14:32:08.966Z,6.83
2018-11-25T14:34:35.351Z,6.97
2018-11-25T14:37:01.928Z,8.93
2018-11-25T14:39:28.293Z,6.47
2018-11-25T14:41:54.582Z,6.77
2018-11-25T14:44:20.970Z,8.37
2018-11-25T14:46:47.297Z,6.53
2018-11-25T14:49:13.695Z,12.03
2018-11-25T14:51:40.865Z,8.80
2018-11-25T14:54:07.265Z,8.67
2018-11-25T14:56:33.573Z,7.60
2018-11-25T14:58:59.853Z,7.67
2018-11-25T15:01:26.265Z,7.00
2018-11-25T15:03:52.614Z,7.43
2018-11-25T15:06:18.920Z,9.17
2018-11-25T15:08:45.256Z,8.33
2018-11-25T15:11:12.275Z,8.53
2018-11-25T15:13:38.589Z,8.83
2018-11-25T15:16:05.736Z,8.27
2018-11-25T15:18:32.078Z,8.83
2018-11-25T15:20:58.488Z,8.87
2018-11-25T15:23:24.955Z,8.67
2018-11-25T15:25:52.316Z,10.07
2018-11-25T15:28:19.580Z,9.93
2018-11-25T15:30:46.034Z,7.83
2018-11-25T15:33:12.413Z,8.50
2018-11-25T15:35:38.973Z,11.63
2018-11-25T15:38:05.472Z,10.67
2018-11-25T15:40:32.808Z,12.10
2018-11-25T15:42:59.377Z,13.17
2018-11-25T15:45:25.828Z,14.90
2018-11-25T15:47:53.110Z,16.53
2018-11-25T15:50:20.505Z,16.20
2018-11-25T15:52:47.400Z,16.87
2018-11-25T15:55:13.747Z,16.90
2018-11-25T15:57:40.095Z,19.10
2018-11-25T16:00:06.673Z,18.30
2018-11-25T16:02:33.797Z,17.23
2018-11-25T16:05:00.132Z,22.07
2018-11-25T16:07:26.440Z,21.73
2018-11-25T16:09:52.769Z,21.70
2018-11-25T16:12:19.209Z,19.57
2018-11-25T16:14:45.631Z,21.80
2018-11-25T16:17:12.158Z,20.07
2018-11-25T16:19:38.765Z,20.70
2018-11-25T16:22:05.425Z,17.57
2018-11-25T16:24:31.694Z,19.37
2018-11-25T16:26:58.090Z,17.03
2018-11-25T16:29:24.664Z,15.63
2018-11-25T16:31:51.887Z,14.03
2018-11-25T16:34:18.281Z,12.23
2018-11-25T16:36:44.892Z,12.57
2018-11-25T16:39:11.094Z,15.50
2018-11-25T16:41:38.231Z,14.23
2018-11-25T16:44:04.583Z,13.83
2018-11-25T16:46:31.184Z,13.70
2018-11-25T16:48:57.490Z,12.03
2018-11-25T16:51:24.588Z,12.80
2018-11-25T16:53:50.989Z,12.40
2018-11-25T16:56:17.659Z,12.53
2018-11-25T16:58:44.119Z,12.30
2018-11-25T17:01:11.143Z,12.93
2018-11-25T17:03:38.242Z,14.80
2018-11-25T17:06:04.671Z,13.87
2018-11-25T17:08:31.154Z,13.43
2018-11-25T17:10:57.506Z,11.87
2018-11-25T17:13:23.867Z,13.53
2018-11-25T17:15:50.576Z,15.63
2018-11-25T17:18:16.978Z,13.83
2018-11-25T17:20:43.539Z,13.90
2018-11-25T17:23:09.856Z,14.27
2018-11-25T17:25:36.506Z,13.70
2018-11-25T17:28:03.247Z,15.60
2018-11-25T17:30:29.662Z,14.13
2018-11-25T17:32:56.013Z,12.10
2018-11-25T17:35:23.075Z,14.37
2018-11-25T17:37:49.426Z,13.73
2018-11-25T17:40:15.812Z,13.97
2018-11-25T17:42:42.828Z,14.20
2018-11-25T17:45:10.050Z,16.17
2018-11-25T17:47:36.459Z,15.23
2018-11-25T17:50:02.786Z,15.43
2018-11-25T17:52:29.307Z,14.10
2018-11-25T17:57:29.587Z,14.13
2018-11-25T17:59:56.135Z,13.60
2018-11-25T18:02:22.528Z,14.47
2018-11-25T18:04:48.863Z,14.63
2018-11-25T18:07:15.164Z,13.80
2018-11-25T18:09:41.467Z,15.20
2018-11-25T18:12:07.797Z,15.57
2018-11-25T18:14:34.918Z,15.10
2018-11-25T18:17:01.539Z,13.70
2018-11-25T18:19:27.824Z,15.50
2018-11-25T18:21:54.256Z,16.27
2018-11-25T18:24:20.789Z,17.07
2018-11-25T18:26:47.127Z,16.77
2018-11-25T18:29:13.512Z,14.97
2018-11-25T18:31:39.882Z,13.40
2018-11-25T18:34:06.810Z,16.30
2018-11-25T18:36:33.736Z,17.07
2018-11-25T18:39:00.100Z,15.40
2018-11-25T18:41:26.481Z,16.97
2018-11-25T18:43:52.809Z,16.57
2018-11-25T18:46:19.144Z,16.30
2018-11-25T18:48:45.449Z,16.47
2018-11-25T18:51:11.830Z,17.23
2018-11-25T18:53:38.296Z,17.80
2018-11-25T18:56:04.591Z,17.50
2018-11-25T18:58:31.263Z,15.67
2018-11-25T19:00:58.357Z,16.70
2018-11-25T19:03:24.946Z,16.63
2018-11-25T19:05:52.316Z,15.50
2018-11-25T19:08:18.915Z,18.27
2018-11-25T19:10:46.242Z,17.57
2018-11-25T19:13:13.168Z,17.37
2018-11-25T19:15:39.703Z,28.73
2018-11-25T19:18:06.856Z,16.30
2018-11-25T19:20:33.301Z,17.80
2018-11-25T19:22:59.656Z,16.33
2018-11-25T19:25:26.128Z,19.87
2018-11-25T19:27:52.501Z,17.23
2018-11-25T19:30:26.071Z,17.97
2018-11-25T19:32:45.278Z,17.87
2018-11-25T19:35:11.680Z,19.07
2018-11-25T19:37:38.816Z,22.53
2018-11-25T19:40:05.262Z,17.50
2018-11-25T19:42:32.550Z,19.50
2018-11-25T19:44:58.895Z,18.83
2018-11-25T19:47:25.958Z,19.53
2018-11-25T19:49:53.115Z,16.60
2018-11-25T19:52:18.660Z,16.37
2018-11-25T19:54:54.207Z,17.83
2018-11-25T19:57:20.687Z,16.57
2018-11-25T19:59:47.241Z,17.20
2018-11-25T20:02:14.241Z,16.17
2018-11-25T20:04:40.896Z,17.03
2018-11-25T20:07:07.294Z,16.00
2018-11-25T20:09:34.387Z,18.07
2018-11-25T20:12:00.788Z,21.00
2018-11-25T20:14:27.890Z,19.53
2018-11-25T20:16:54.434Z,16.03
2018-11-25T20:19:20.835Z,17.87
2018-11-25T20:21:47.921Z,19.33
2018-11-25T20:24:20.439Z,17.27
2018-11-25T20:26:53.590Z,17.97
2018-11-25T20:29:25.858Z,18.83
2018-11-25T20:31:58.571Z,18.83
2018-11-25T20:34:31.072Z,18.03
2018-11-25T20:37:03.447Z,18.03
2018-11-25T20:39:35.785Z,21.43
2018-11-25T20:42:08.398Z,19.03
2018-11-25T20:44:34.642Z,18.70
2018-11-25T20:47:04.918Z,20.00
2018-11-25T20:49:37.310Z,19.73
2018-11-25T20:52:09.751Z,18.70
2018-11-25T20:54:42.125Z,18.83
2018-11-25T20:57:14.433Z,18.80
2018-11-25T20:59:46.767Z,20.50
2018-11-25T21:02:20.474Z,19.83
2018-11-25T21:04:52.463Z,18.53
2018-11-25T21:07:24.832Z,18.93
2018-11-25T21:09:57.939Z,17.93
2018-11-25T21:12:31.187Z,18.63
2018-11-25T21:15:03.689Z,18.80
2018-11-25T21:17:36.854Z,15.97
2018-11-25T21:20:10.012Z,16.93
2018-11-25T21:22:42.501Z,14.30
2018-11-25T21:25:14.763Z,17.67
2018-11-25T21:27:47.101Z,16.90
2018-11-25T21:30:19.726Z,19.63
2018-11-25T21:32:52.266Z,23.30
2018-11-25T21:35:25.055Z,29.30
2018-11-25T21:37:58.255Z,26.80
2018-11-25T21:40:31.560Z,23.33
2018-11-25T21:43:03.980Z,14.83
2018-11-25T21:45:30.225Z,16.00
2018-11-25T21:47:57.951Z,16.50
2018-11-25T21:50:22.779Z,20.60
2018-11-25T21:52:49.024Z,29.90
2018-11-25T21:55:15.299Z,23.57
2018-11-25T21:57:42.295Z,20.33
2018-11-25T22:00:08.569Z,32.13
2018-11-25T22:02:34.836Z,19.43
2018-11-25T22:05:01.104Z,19.27
2018-11-25T22:07:27.351Z,22.47
2018-11-25T22:09:53.833Z,20.43
2018-11-25T22:12:20.077Z,18.33
2018-11-25T22:14:46.359Z,17.77
2018-11-25T22:17:13.376Z,17.67
2018-11-25T22:19:39.632Z,17.80
2018-11-25T22:22:06.090Z,15.20
2018-11-25T22:24:32.670Z,17.40
2018-11-25T22:26:58.891Z,17.47
2018-11-25T22:29:25.886Z,17.27
2018-11-25T22:31:52.163Z,16.70
2018-11-25T22:34:18.474Z,19.83
2018-11-25T22:36:44.738Z,16.83
2018-11-25T22:39:11.011Z,18.13
2018-11-25T22:41:37.289Z,18.63
2018-11-25T22:44:03.599Z,16.27
2018-11-25T22:46:29.855Z,18.87
2018-11-25T22:48:56.098Z,18.77
2018-11-25T22:51:23.095Z,15.00
2018-11-25T22:53:49.361Z,17.67
2018-11-25T22:56:16.626Z,14.67
2018-11-25T22:58:43.606Z,17.30
2018-11-25T23:01:10.635Z,15.87
2018-11-25T23:03:36.886Z,17.40
2018-11-25T23:06:23.991Z,15.53
2018-11-25T23:08:50.267Z,17.30
2018-11-25T23:11:16.538Z,18.63
2018-11-25T23:13:43.352Z,17.33
2018-11-25T23:16:10.348Z,17.33
2018-11-25T23:18:36.602Z,15.57
2018-11-25T23:21:02.865Z,17.53
2018-11-25T23:23:29.158Z,16.93
2018-11-25T23:25:55.503Z,17.27
2018-11-25T23:28:22.510Z,18.03
2018-11-25T23:30:48.766Z,18.07
2018-11-25T23:33:15.494Z,17.47
2018-11-25T23:35:41.719Z,16.60
2018-11-25T23:38:08.003Z,18.13
2018-11-25T23:40:34.259Z,18.77
2018-11-25T23:43:00.551Z,16.87
2018-11-25T23:45:26.788Z,16.77
2018-11-25T23:47:53.048Z,16.67
2018-11-25T23:50:19.287Z,18.57
2018-11-25T23:52:45.537Z,17.33
2018-11-25T23:55:11.780Z,18.03
2018-11-25T23:57:38.106Z,18.10
